KFRH/FRH METAR and TAF weather

Enter ICAO airport designator
Station Type Date Time Source
KFRH METAR 2020/08/10 19:35 UTC NOAA

KFRH 101935Z AUTO 16005KT 10SM CLR 30/23 A2998 RMK AO1


Station Type Date Time Source
KFRH Decoded METAR 2020/08/10 19:35 UTC NOAA

Station name not available
Aug 10, 2020 - 03:35 PM EDT / 2020.08.10 1935 UTC
Wind: from the SSE (160 degrees) at 6 MPH (5 KT):0
Visibility: 10 mile(s):0
Sky conditions: clear
Temperature: 86 F (30 C)
Heat index: 93.4 F (34.1 C):1
Dew Point: 73 F (23 C)
Relative Humidity: 66%
Pressure (altimeter): 29.98 in. Hg (1015 hPa)
ob: KFRH 101935Z AUTO 16005KT 10SM CLR 30/23 A2998 RMK AO1
cycle: 19

Station Type Date Time Source
KFRH TAF UTC NOAA

Error!

Example: see airport list